sensor_id;sensor_type;location;lat;lon;timestamp;temperature;humidity
4314;DHT22;2170;48.794;9.182;2023-07-09T00:00:52;24.30;99.90
4314;DHT22;2170;48.794;9.182;2023-07-09T00:03:20;24.30;99.90
4314;DHT22;2170;48.794;9.182;2023-07-09T00:05:48;24.30;99.90
4314;DHT22;2170;48.794;9.182;2023-07-09T00:08:25;24.30;99.90
4314;DHT22;2170;48.794;9.182;2023-07-09T00:10:53;24.20;99.90
4314;DHT22;2170;48.794;9.182;2023-07-09T00:13:20;24.20;99.90
4314;DHT22;2170;48.794;9.182;2023-07-09T00:15:47;24.10;99.90
4314;DHT22;2170;48.794;9.182;2023-07-09T00:18:14;24.10;99.90
4314;DHT22;2170;48.794;9.182;2023-07-09T00:20:42;24.10;99.90
4314;DHT22;2170;48.794;9.182;2023-07-09T00:23:09;24.10;99.90
4314;DHT22;2170;48.794;9.182;2023-07-09T00:25:39;24.10;99.90
4314;DHT22;2170;48.794;9.182;2023-07-09T00:28:12;24.00;99.90
4314;DHT22;2170;48.794;9.182;2023-07-09T00:30:39;23.90;99.90
4314;DHT22;2170;48.794;9.182;2023-07-09T00:33:10;24.20;99.90
4314;DHT22;2170;48.794;9.182;2023-07-09T00:35:37;23.90;99.90
4314;DHT22;2170;48.794;9.182;2023-07-09T00:38:12;23.80;99.90
4314;DHT22;2170;48.794;9.182;2023-07-09T00:40:46;23.80;99.90
4314;DHT22;2170;48.794;9.182;2023-07-09T00:43:15;23.70;99.90
4314;DHT22;2170;48.794;9.182;2023-07-09T00:45:42;23.60;99.90
4314;DHT22;2170;48.794;9.182;2023-07-09T00:48:13;23.50;99.90
4314;DHT22;2170;48.794;9.182;2023-07-09T00:50:44;23.40;99.90
4314;DHT22;2170;48.794;9.182;2023-07-09T00:53:18;23.50;99.90
4314;DHT22;2170;48.794;9.182;2023-07-09T00:55:50;23.50;99.90
4314;DHT22;2170;48.794;9.182;2023-07-09T00:58:19;23.50;99.90
4314;DHT22;2170;48.794;9.182;2023-07-09T01:00:50;23.50;99.90
4314;DHT22;2170;48.794;9.182;2023-07-09T01:03:23;23.40;99.90
4314;DHT22;2170;48.794;9.182;2023-07-09T01:05:53;23.70;99.90
4314;DHT22;2170;48.794;9.182;2023-07-09T01:08:22;23.40;99.90
4314;DHT22;2170;48.794;9.182;2023-07-09T01:10:48;23.40;99.90
4314;DHT22;2170;48.794;9.182;2023-07-09T01:13:16;23.30;99.90
4314;DHT22;2170;48.794;9.182;2023-07-09T01:15:45;23.30;99.90
4314;DHT22;2170;48.794;9.182;2023-07-09T01:18:13;23.20;99.90
4314;DHT22;2170;48.794;9.182;2023-07-09T01:20:40;23.20;99.90
4314;DHT22;2170;48.794;9.182;2023-07-09T01:23:08;23.10;99.90
4314;DHT22;2170;48.794;9.182;2023-07-09T01:25:37;23.00;99.90
4314;DHT22;2170;48.794;9.182;2023-07-09T01:28:04;23.00;99.90
4314;DHT22;2170;48.794;9.182;2023-07-09T01:30:34;22.90;99.90
4314;DHT22;2170;48.794;9.182;2023-07-09T01:33:01;22.90;99.90
4314;DHT22;2170;48.794;9.182;2023-07-09T01:35:31;22.80;99.90
4314;DHT22;2170;48.794;9.182;2023-07-09T01:37:58;22.80;99.90
4314;DHT22;2170;48.794;9.182;2023-07-09T01:40:27;22.70;99.90
4314;DHT22;2170;48.794;9.182;2023-07-09T01:42:55;22.70;99.90
4314;DHT22;2170;48.794;9.182;2023-07-09T01:45:23;22.70;99.90
4314;DHT22;2170;48.794;9.182;2023-07-09T01:47:50;22.70;99.90
4314;DHT22;2170;48.794;9.182;2023-07-09T01:50:19;22.60;99.90
4314;DHT22;2170;48.794;9.182;2023-07-09T01:52:46;22.50;99.90
4314;DHT22;2170;48.794;9.182;2023-07-09T01:55:15;22.50;99.90
4314;DHT22;2170;48.794;9.182;2023-07-09T01:57:44;22.50;99.90
4314;DHT22;2170;48.794;9.182;2023-07-09T02:00:13;22.40;99.90
4314;DHT22;2170;48.794;9.182;2023-07-09T02:02:43;22.30;99.90
4314;DHT22;2170;48.794;9.182;2023-07-09T02:05:12;22.30;99.90
4314;DHT22;2170;48.794;9.182;2023-07-09T02:07:39;22.30;99.90
4314;DHT22;2170;48.794;9.182;2023-07-09T02:10:06;22.30;99.90
4314;DHT22;2170;48.794;9.182;2023-07-09T02:12:33;22.30;99.90
4314;DHT22;2170;48.794;9.182;2023-07-09T02:15:01;22.30;99.90
4314;DHT22;2170;48.794;9.182;2023-07-09T02:17:28;22.20;99.90
4314;DHT22;2170;48.794;9.182;2023-07-09T02:19:55;22.20;99.90
4314;DHT22;2170;48.794;9.182;2023-07-09T02:22:21;22.10;99.90
4314;DHT22;2170;48.794;9.182;2023-07-09T02:24:48;22.10;99.90
4314;DHT22;2170;48.794;9.182;2023-07-09T02:27:17;22.00;99.90
4314;DHT22;2170;48.794;9.182;2023-07-09T02:29:44;22.00;99.90
4314;DHT22;2170;48.794;9.182;2023-07-09T02:32:17;22.00;99.90
4314;DHT22;2170;48.794;9.182;2023-07-09T02:34:45;22.00;99.90
4314;DHT22;2170;48.794;9.182;2023-07-09T02:37:15;21.90;99.90
4314;DHT22;2170;48.794;9.182;2023-07-09T02:39:42;21.90;99.90
4314;DHT22;2170;48.794;9.182;2023-07-09T02:42:09;21.80;99.90
4314;DHT22;2170;48.794;9.182;2023-07-09T02:44:36;21.90;99.90
4314;DHT22;2170;48.794;9.182;2023-07-09T02:47:03;21.80;99.90
4314;DHT22;2170;48.794;9.182;2023-07-09T02:49:31;21.70;99.90
4314;DHT22;2170;48.794;9.182;2023-07-09T02:51:58;21.70;99.90
4314;DHT22;2170;48.794;9.182;2023-07-09T02:54:25;21.60;99.90
4314;DHT22;2170;48.794;9.182;2023-07-09T02:56:52;21.60;99.90
4314;DHT22;2170;48.794;9.182;2023-07-09T02:59:18;21.60;99.90
4314;DHT22;2170;48.794;9.182;2023-07-09T03:01:45;21.50;99.90
4314;DHT22;2170;48.794;9.182;2023-07-09T03:04:13;21.50;99.90
4314;DHT22;2170;48.794;9.182;2023-07-09T03:06:41;21.50;99.90
4314;DHT22;2170;48.794;9.182;2023-07-09T03:09:08;21.50;99.90
4314;DHT22;2170;48.794;9.182;2023-07-09T03:11:35;21.40;99.90
4314;DHT22;2170;48.794;9.182;2023-07-09T03:14:02;21.40;99.90
4314;DHT22;2170;48.794;9.182;2023-07-09T03:16:31;21.40;99.90
4314;DHT22;2170;48.794;9.182;2023-07-09T03:18:59;21.40;99.90
4314;DHT22;2170;48.794;9.182;2023-07-09T03:21:27;21.60;99.90
4314;DHT22;2170;48.794;9.182;2023-07-09T03:23:56;21.30;99.90
4314;DHT22;2170;48.794;9.182;2023-07-09T03:26:23;21.30;99.90
4314;DHT22;2170;48.794;9.182;2023-07-09T03:28:51;21.30;99.90
4314;DHT22;2170;48.794;9.182;2023-07-09T03:31:18;21.20;99.90
4314;DHT22;2170;48.794;9.182;2023-07-09T03:33:46;21.20;99.90
4314;DHT22;2170;48.794;9.182;2023-07-09T03:36:14;21.20;99.90
4314;DHT22;2170;48.794;9.182;2023-07-09T03:38:40;21.20;99.90
4314;DHT22;2170;48.794;9.182;2023-07-09T03:41:09;21.20;99.90
4314;DHT22;2170;48.794;9.182;2023-07-09T03:43:35;21.10;99.90
4314;DHT22;2170;48.794;9.182;2023-07-09T03:46:02;21.10;99.90
4314;DHT22;2170;48.794;9.182;2023-07-09T03:48:29;21.10;99.90
4314;DHT22;2170;48.794;9.182;2023-07-09T03:50:55;21.00;99.90
4314;DHT22;2170;48.794;9.182;2023-07-09T03:53:22;21.00;99.90
4314;DHT22;2170;48.794;9.182;2023-07-09T03:55:52;21.00;99.90
4314;DHT22;2170;48.794;9.182;2023-07-09T03:58:20;21.00;99.90
4314;DHT22;2170;48.794;9.182;2023-07-09T04:00:47;20.90;99.90
4314;DHT22;2170;48.794;9.182;2023-07-09T04:03:14;21.00;99.90
4314;DHT22;2170;48.794;9.182;2023-07-09T04:05:41;21.00;99.90
4314;DHT22;2170;48.794;9.182;2023-07-09T04:08:08;20.90;99.90
4314;DHT22;2170;48.794;9.182;2023-07-09T04:10:34;20.90;99.90
4314;DHT22;2170;48.794;9.182;2023-07-09T04:13:01;20.90;99.90
4314;DHT22;2170;48.794;9.182;2023-07-09T04:15:29;20.90;99.90
4314;DHT22;2170;48.794;9.182;2023-07-09T04:17:56;20.90;99.90
4314;DHT22;2170;48.794;9.182;2023-07-09T04:20:23;20.90;99.90
4314;DHT22;2170;48.794;9.182;2023-07-09T04:22:49;20.90;99.90
4314;DHT22;2170;48.794;9.182;2023-07-09T04:25:16;21.00;99.90
4314;DHT22;2170;48.794;9.182;2023-07-09T04:27:43;21.10;99.90
4314;DHT22;2170;48.794;9.182;2023-07-09T04:30:12;21.00;99.90
4314;DHT22;2170;48.794;9.182;2023-07-09T04:32:40;21.10;99.90
4314;DHT22;2170;48.794;9.182;2023-07-09T04:35:08;21.10;99.90
4314;DHT22;2170;48.794;9.182;2023-07-09T04:37:36;21.10;99.90
4314;DHT22;2170;48.794;9.182;2023-07-09T04:40:04;21.10;99.90
4314;DHT22;2170;48.794;9.182;2023-07-09T04:42:33;21.00;99.90
4314;DHT22;2170;48.794;9.182;2023-07-09T04:45:00;21.00;99.90
4314;DHT22;2170;48.794;9.182;2023-07-09T04:47:27;21.00;99.90
4314;DHT22;2170;48.794;9.182;2023-07-09T04:49:55;21.10;99.90
4314;DHT22;2170;48.794;9.182;2023-07-09T04:52:22;21.20;99.90
4314;DHT22;2170;48.794;9.182;2023-07-09T04:54:48;21.30;99.90
4314;DHT22;2170;48.794;9.182;2023-07-09T04:57:16;21.40;99.90
4314;DHT22;2170;48.794;9.182;2023-07-09T04:59:43;21.40;99.90
4314;DHT22;2170;48.794;9.182;2023-07-09T05:02:11;21.50;99.90
4314;DHT22;2170;48.794;9.182;2023-07-09T05:04:37;21.60;99.90
4314;DHT22;2170;48.794;9.182;2023-07-09T05:07:06;21.70;99.90
4314;DHT22;2170;48.794;9.182;2023-07-09T05:09:33;21.80;99.90
4314;DHT22;2170;48.794;9.182;2023-07-09T05:12:00;21.80;99.90
4314;DHT22;2170;48.794;9.182;2023-07-09T05:14:27;21.90;99.90
4314;DHT22;2170;48.794;9.182;2023-07-09T05:16:54;22.00;99.90
4314;DHT22;2170;48.794;9.182;2023-07-09T05:19:21;22.00;99.90
4314;DHT22;2170;48.794;9.182;2023-07-09T05:21:48;22.10;99.90
4314;DHT22;2170;48.794;9.182;2023-07-09T05:24:16;22.20;99.90
4314;DHT22;2170;48.794;9.182;2023-07-09T05:26:43;22.40;99.90
4314;DHT22;2170;48.794;9.182;2023-07-09T05:29:09;22.40;99.90
4314;DHT22;2170;48.794;9.182;2023-07-09T05:31:36;22.50;99.90
4314;DHT22;2170;48.794;9.182;2023-07-09T05:34:03;22.60;99.90
4314;DHT22;2170;48.794;9.182;2023-07-09T05:36:29;22.70;99.90
4314;DHT22;2170;48.794;9.182;2023-07-09T05:38:56;22.80;99.90
4314;DHT22;2170;48.794;9.182;2023-07-09T05:41:24;22.90;99.90
4314;DHT22;2170;48.794;9.182;2023-07-09T05:43:51;23.00;99.90
4314;DHT22;2170;48.794;9.182;2023-07-09T05:46:19;23.00;99.90
4314;DHT22;2170;48.794;9.182;2023-07-09T05:48:45;23.10;99.90
4314;DHT22;2170;48.794;9.182;2023-07-09T05:51:12;23.20;99.90
4314;DHT22;2170;48.794;9.182;2023-07-09T05:53:39;23.30;99.90
4314;DHT22;2170;48.794;9.182;2023-07-09T05:56:06;23.60;99.90
4314;DHT22;2170;48.794;9.182;2023-07-09T05:58:34;23.50;99.90
4314;DHT22;2170;48.794;9.182;2023-07-09T06:01:01;23.50;99.90
4314;DHT22;2170;48.794;9.182;2023-07-09T06:03:29;23.70;99.90
4314;DHT22;2170;48.794;9.182;2023-07-09T06:05:57;23.80;99.90
4314;DHT22;2170;48.794;9.182;2023-07-09T06:08:24;23.80;99.90
4314;DHT22;2170;48.794;9.182;2023-07-09T06:10:52;23.90;99.90
4314;DHT22;2170;48.794;9.182;2023-07-09T06:13:19;23.80;99.90
4314;DHT22;2170;48.794;9.182;2023-07-09T06:15:47;23.90;99.90
4314;DHT22;2170;48.794;9.182;2023-07-09T06:18:14;24.00;99.90
4314;DHT22;2170;48.794;9.182;2023-07-09T06:20:46;24.10;99.90
4314;DHT22;2170;48.794;9.182;2023-07-09T06:23:13;24.10;99.90
4314;DHT22;2170;48.794;9.182;2023-07-09T06:25:40;24.20;99.90
4314;DHT22;2170;48.794;9.182;2023-07-09T06:28:06;24.30;99.90
4314;DHT22;2170;48.794;9.182;2023-07-09T06:30:33;24.30;99.90
4314;DHT22;2170;48.794;9.182;2023-07-09T06:33:01;24.70;99.90
4314;DHT22;2170;48.794;9.182;2023-07-09T06:35:28;24.60;99.90
4314;DHT22;2170;48.794;9.182;2023-07-09T06:37:54;24.70;99.90
4314;DHT22;2170;48.794;9.182;2023-07-09T06:40:21;24.80;99.90
4314;DHT22;2170;48.794;9.182;2023-07-09T06:42:48;24.90;99.90
4314;DHT22;2170;48.794;9.182;2023-07-09T06:45:15;25.00;99.90
4314;DHT22;2170;48.794;9.182;2023-07-09T06:47:42;25.10;99.90
4314;DHT22;2170;48.794;9.182;2023-07-09T06:50:11;25.10;99.90
4314;DHT22;2170;48.794;9.182;2023-07-09T06:52:38;25.20;99.90
4314;DHT22;2170;48.794;9.182;2023-07-09T06:55:06;25.30;99.90
4314;DHT22;2170;48.794;9.182;2023-07-09T06:57:33;25.30;99.90
4314;DHT22;2170;48.794;9.182;2023-07-09T06:59:59;25.40;99.90
4314;DHT22;2170;48.794;9.182;2023-07-09T07:02:26;25.50;99.90
4314;DHT22;2170;48.794;9.182;2023-07-09T07:04:53;25.60;99.90
4314;DHT22;2170;48.794;9.182;2023-07-09T07:07:21;25.70;99.90
4314;DHT22;2170;48.794;9.182;2023-07-09T07:09:48;25.80;99.90
4314;DHT22;2170;48.794;9.182;2023-07-09T07:12:23;25.90;99.90
4314;DHT22;2170;48.794;9.182;2023-07-09T07:14:50;26.00;99.90
4314;DHT22;2170;48.794;9.182;2023-07-09T07:17:17;26.20;99.90
4314;DHT22;2170;48.794;9.182;2023-07-09T07:19:44;26.30;99.90
4314;DHT22;2170;48.794;9.182;2023-07-09T07:22:10;26.40;99.90
4314;DHT22;2170;48.794;9.182;2023-07-09T07:24:38;26.50;99.90
4314;DHT22;2170;48.794;9.182;2023-07-09T07:27:05;26.50;99.90
4314;DHT22;2170;48.794;9.182;2023-07-09T07:29:32;26.60;99.90
4314;DHT22;2170;48.794;9.182;2023-07-09T07:31:59;26.70;99.90
4314;DHT22;2170;48.794;9.182;2023-07-09T07:34:26;26.80;99.90
4314;DHT22;2170;48.794;9.182;2023-07-09T07:36:53;26.90;99.90
4314;DHT22;2170;48.794;9.182;2023-07-09T07:39:19;27.00;99.90
4314;DHT22;2170;48.794;9.182;2023-07-09T07:41:47;27.10;99.90
4314;DHT22;2170;48.794;9.182;2023-07-09T07:44:16;27.10;99.90
4314;DHT22;2170;48.794;9.182;2023-07-09T07:46:43;27.20;99.90
4314;DHT22;2170;48.794;9.182;2023-07-09T07:49:10;27.30;99.90
4314;DHT22;2170;48.794;9.182;2023-07-09T07:51:37;27.40;99.90
4314;DHT22;2170;48.794;9.182;2023-07-09T07:54:04;27.50;99.90
4314;DHT22;2170;48.794;9.182;2023-07-09T07:56:31;27.60;99.90
4314;DHT22;2170;48.794;9.182;2023-07-09T07:58:59;27.80;99.90
4314;DHT22;2170;48.794;9.182;2023-07-09T08:01:26;27.90;99.90
4314;DHT22;2170;48.794;9.182;2023-07-09T08:03:53;28.00;99.90
4314;DHT22;2170;48.794;9.182;2023-07-09T08:06:20;28.00;99.90
4314;DHT22;2170;48.794;9.182;2023-07-09T08:08:47;28.10;99.90
4314;DHT22;2170;48.794;9.182;2023-07-09T08:11:14;28.00;99.90
4314;DHT22;2170;48.794;9.182;2023-07-09T08:13:41;28.00;99.90
4314;DHT22;2170;48.794;9.182;2023-07-09T08:16:09;28.10;99.90
4314;DHT22;2170;48.794;9.182;2023-07-09T08:18:37;28.30;99.90
4314;DHT22;2170;48.794;9.182;2023-07-09T08:21:04;28.50;99.90
4314;DHT22;2170;48.794;9.182;2023-07-09T08:23:31;28.70;99.90
4314;DHT22;2170;48.794;9.182;2023-07-09T08:26:00;28.70;99.90
4314;DHT22;2170;48.794;9.182;2023-07-09T08:28:28;28.70;99.90
4314;DHT22;2170;48.794;9.182;2023-07-09T08:30:55;28.80;99.90
4314;DHT22;2170;48.794;9.182;2023-07-09T08:33:24;28.90;99.90
4314;DHT22;2170;48.794;9.182;2023-07-09T08:35:52;29.10;99.90
4314;DHT22;2170;48.794;9.182;2023-07-09T08:38:19;29.40;99.90
4314;DHT22;2170;48.794;9.182;2023-07-09T08:40:53;29.50;99.90
4314;DHT22;2170;48.794;9.182;2023-07-09T08:43:32;29.60;99.90
4314;DHT22;2170;48.794;9.182;2023-07-09T08:46:05;29.60;99.90
4314;DHT22;2170;48.794;9.182;2023-07-09T08:48:37;29.70;99.90
4314;DHT22;2170;48.794;9.182;2023-07-09T08:51:11;29.80;99.90
4314;DHT22;2170;48.794;9.182;2023-07-09T08:53:42;29.70;99.90
4314;DHT22;2170;48.794;9.182;2023-07-09T08:56:13;29.80;99.90
4314;DHT22;2170;48.794;9.182;2023-07-09T08:58:42;29.80;99.90
4314;DHT22;2170;48.794;9.182;2023-07-09T09:01:17;30.00;99.90
4314;DHT22;2170;48.794;9.182;2023-07-09T09:03:47;30.30;99.90
4314;DHT22;2170;48.794;9.182;2023-07-09T09:06:17;30.50;99.90
4314;DHT22;2170;48.794;9.182;2023-07-09T09:08:55;30.70;99.90
4314;DHT22;2170;48.794;9.182;2023-07-09T09:11:32;30.90;99.90
4314;DHT22;2170;48.794;9.182;2023-07-09T09:14:05;31.10;99.90
4314;DHT22;2170;48.794;9.182;2023-07-09T09:16:35;31.10;99.90
4314;DHT22;2170;48.794;9.182;2023-07-09T09:19:16;31.40;99.90
4314;DHT22;2170;48.794;9.182;2023-07-09T09:21:44;31.50;99.90
4314;DHT22;2170;48.794;9.182;2023-07-09T09:24:16;31.80;99.90
4314;DHT22;2170;48.794;9.182;2023-07-09T09:26:44;32.00;99.90
4314;DHT22;2170;48.794;9.182;2023-07-09T09:29:13;32.20;99.90
4314;DHT22;2170;48.794;9.182;2023-07-09T09:31:41;32.00;99.90
4314;DHT22;2170;48.794;9.182;2023-07-09T09:34:19;32.20;99.90
4314;DHT22;2170;48.794;9.182;2023-07-09T09:36:46;32.60;99.90
4314;DHT22;2170;48.794;9.182;2023-07-09T09:39:13;33.00;99.40
4314;DHT22;2170;48.794;9.182;2023-07-09T09:41:40;33.20;98.40
4314;DHT22;2170;48.794;9.182;2023-07-09T09:44:17;33.50;97.30
4314;DHT22;2170;48.794;9.182;2023-07-09T09:46:44;33.60;96.30
4314;DHT22;2170;48.794;9.182;2023-07-09T09:49:11;33.90;95.50
4314;DHT22;2170;48.794;9.182;2023-07-09T09:51:40;34.00;94.50
4314;DHT22;2170;48.794;9.182;2023-07-09T09:54:14;34.10;93.60
4314;DHT22;2170;48.794;9.182;2023-07-09T09:56:43;34.20;93.00
4314;DHT22;2170;48.794;9.182;2023-07-09T09:59:17;34.50;92.10
4314;DHT22;2170;48.794;9.182;2023-07-09T10:01:44;34.70;90.60
4314;DHT22;2170;48.794;9.182;2023-07-09T10:04:17;34.00;90.80
4314;DHT22;2170;48.794;9.182;2023-07-09T10:06:49;34.30;90.90
4314;DHT22;2170;48.794;9.182;2023-07-09T10:09:23;34.90;89.70
4314;DHT22;2170;48.794;9.182;2023-07-09T10:11:57;35.20;86.70
4314;DHT22;2170;48.794;9.182;2023-07-09T10:14:31;35.40;85.90
4314;DHT22;2170;48.794;9.182;2023-07-09T10:17:04;35.60;83.90
4314;DHT22;2170;48.794;9.182;2023-07-09T10:19:36;35.80;81.90
4314;DHT22;2170;48.794;9.182;2023-07-09T10:22:13;35.70;72.10
4314;DHT22;2170;48.794;9.182;2023-07-09T10:24:54;35.90;69.00
4314;DHT22;2170;48.794;9.182;2023-07-09T10:27:28;36.20;66.30
4314;DHT22;2170;48.794;9.182;2023-07-09T10:30:13;36.60;63.00
4314;DHT22;2170;48.794;9.182;2023-07-09T10:32:51;36.70;61.80
4314;DHT22;2170;48.794;9.182;2023-07-09T10:35:24;36.70;59.70
4314;DHT22;2170;48.794;9.182;2023-07-09T10:40:50;36.80;57.90
4314;DHT22;2170;48.794;9.182;2023-07-09T10:43:22;36.90;57.30
4314;DHT22;2170;48.794;9.182;2023-07-09T10:48:30;37.20;56.20
4314;DHT22;2170;48.794;9.182;2023-07-09T10:50:57;37.70;56.50
4314;DHT22;2170;48.794;9.182;2023-07-09T10:53:32;37.80;54.70
4314;DHT22;2170;48.794;9.182;2023-07-09T10:56:04;37.10;56.20
4314;DHT22;2170;48.794;9.182;2023-07-09T10:58:35;37.10;56.20
4314;DHT22;2170;48.794;9.182;2023-07-09T11:01:04;37.10;56.80
4314;DHT22;2170;48.794;9.182;2023-07-09T11:03:38;37.30;56.50
4314;DHT22;2170;48.794;9.182;2023-07-09T11:06:14;37.70;55.20
4314;DHT22;2170;48.794;9.182;2023-07-09T11:08:44;37.90;54.10
4314;DHT22;2170;48.794;9.182;2023-07-09T11:11:17;38.40;53.40
4314;DHT22;2170;48.794;9.182;2023-07-09T11:13:53;38.80;49.10
4314;DHT22;2170;48.794;9.182;2023-07-09T11:16:27;38.80;49.30
4314;DHT22;2170;48.794;9.182;2023-07-09T11:18:58;39.00;46.50
4314;DHT22;2170;48.794;9.182;2023-07-09T11:23:55;39.10;46.50
4314;DHT22;2170;48.794;9.182;2023-07-09T11:28:54;39.40;46.40
4314;DHT22;2170;48.794;9.182;2023-07-09T11:31:24;39.40;46.50
4314;DHT22;2170;48.794;9.182;2023-07-09T11:34:01;39.40;46.90
4314;DHT22;2170;48.794;9.182;2023-07-09T11:36:30;39.40;47.50
4314;DHT22;2170;48.794;9.182;2023-07-09T11:39:00;39.20;46.60
4314;DHT22;2170;48.794;9.182;2023-07-09T11:41:37;39.40;46.10
4314;DHT22;2170;48.794;9.182;2023-07-09T11:44:12;39.60;45.60
4314;DHT22;2170;48.794;9.182;2023-07-09T11:46:49;39.40;46.20
4314;DHT22;2170;48.794;9.182;2023-07-09T11:49:18;39.40;46.50
4314;DHT22;2170;48.794;9.182;2023-07-09T11:51:48;39.40;45.50
4314;DHT22;2170;48.794;9.182;2023-07-09T11:54:19;39.70;45.10
4314;DHT22;2170;48.794;9.182;2023-07-09T11:56:54;39.90;44.70
4314;DHT22;2170;48.794;9.182;2023-07-09T11:59:21;40.00;44.00
4314;DHT22;2170;48.794;9.182;2023-07-09T12:01:48;39.70;44.70
4314;DHT22;2170;48.794;9.182;2023-07-09T12:04:18;39.50;45.60
4314;DHT22;2170;48.794;9.182;2023-07-09T12:09:15;39.90;42.80
4314;DHT22;2170;48.794;9.182;2023-07-09T12:11:45;40.10;43.20
4314;DHT22;2170;48.794;9.182;2023-07-09T12:14:13;40.20;43.50
4314;DHT22;2170;48.794;9.182;2023-07-09T12:16:43;40.00;42.00
4314;DHT22;2170;48.794;9.182;2023-07-09T12:19:11;40.10;42.60
4314;DHT22;2170;48.794;9.182;2023-07-09T12:21:40;39.80;42.20
4314;DHT22;2170;48.794;9.182;2023-07-09T12:24:20;39.80;42.10
4314;DHT22;2170;48.794;9.182;2023-07-09T12:26:51;39.70;41.50
4314;DHT22;2170;48.794;9.182;2023-07-09T12:34:12;40.80;40.60
4314;DHT22;2170;48.794;9.182;2023-07-09T12:36:43;40.70;41.00
4314;DHT22;2170;48.794;9.182;2023-07-09T12:39:11;40.40;40.80
4314;DHT22;2170;48.794;9.182;2023-07-09T12:46:40;40.70;36.60
4314;DHT22;2170;48.794;9.182;2023-07-09T12:49:07;40.70;37.00
4314;DHT22;2170;48.794;9.182;2023-07-09T12:51:37;40.70;37.60
4314;DHT22;2170;48.794;9.182;2023-07-09T12:54:13;41.20;37.30
4314;DHT22;2170;48.794;9.182;2023-07-09T12:59:16;41.70;35.50
4314;DHT22;2170;48.794;9.182;2023-07-09T13:01:48;41.40;36.60
4314;DHT22;2170;48.794;9.182;2023-07-09T13:06:45;41.10;36.20
4314;DHT22;2170;48.794;9.182;2023-07-09T13:09:20;42.00;35.60
4314;DHT22;2170;48.794;9.182;2023-07-09T13:11:48;42.10;35.90
4314;DHT22;2170;48.794;9.182;2023-07-09T13:14:20;42.60;35.40
4314;DHT22;2170;48.794;9.182;2023-07-09T13:16:47;42.60;35.50
4314;DHT22;2170;48.794;9.182;2023-07-09T13:19:14;42.60;35.70
4314;DHT22;2170;48.794;9.182;2023-07-09T13:21:41;41.70;36.40
4314;DHT22;2170;48.794;9.182;2023-07-09T13:24:17;42.10;34.70
4314;DHT22;2170;48.794;9.182;2023-07-09T13:26:45;42.20;35.00
4314;DHT22;2170;48.794;9.182;2023-07-09T13:29:17;43.00;34.00
4314;DHT22;2170;48.794;9.182;2023-07-09T13:34:21;42.30;34.60
4314;DHT22;2170;48.794;9.182;2023-07-09T13:54:19;42.00;34.10
4314;DHT22;2170;48.794;9.182;2023-07-09T13:57:16;42.30;35.00
4314;DHT22;2170;48.794;9.182;2023-07-09T13:59:57;42.60;34.80
4314;DHT22;2170;48.794;9.182;2023-07-09T14:02:27;42.60;33.90
4314;DHT22;2170;48.794;9.182;2023-07-09T14:07:34;42.90;34.70
4314;DHT22;2170;48.794;9.182;2023-07-09T14:10:02;42.90;35.60
4314;DHT22;2170;48.794;9.182;2023-07-09T14:15:00;42.80;33.80
4314;DHT22;2170;48.794;9.182;2023-07-09T14:19:54;42.90;34.70
4314;DHT22;2170;48.794;9.182;2023-07-09T14:22:27;42.80;35.30
4314;DHT22;2170;48.794;9.182;2023-07-09T14:24:57;42.70;35.30
4314;DHT22;2170;48.794;9.182;2023-07-09T14:27:24;42.60;35.70
4314;DHT22;2170;48.794;9.182;2023-07-09T14:29:50;42.40;34.40
4314;DHT22;2170;48.794;9.182;2023-07-09T14:32:31;42.40;35.00
4314;DHT22;2170;48.794;9.182;2023-07-09T14:34:58;42.20;35.40
4314;DHT22;2170;48.794;9.182;2023-07-09T14:37:25;42.10;35.40
4314;DHT22;2170;48.794;9.182;2023-07-09T14:42:21;42.60;35.60
4314;DHT22;2170;48.794;9.182;2023-07-09T14:57:48;41.90;35.70
4314;DHT22;2170;48.794;9.182;2023-07-09T15:00:18;41.60;34.80
4314;DHT22;2170;48.794;9.182;2023-07-09T15:03:07;41.70;35.40
4314;DHT22;2170;48.794;9.182;2023-07-09T15:08:11;42.10;34.80
4314;DHT22;2170;48.794;9.182;2023-07-09T15:10:39;41.90;35.10
4314;DHT22;2170;48.794;9.182;2023-07-09T15:13:15;41.50;35.70
4314;DHT22;2170;48.794;9.182;2023-07-09T15:18:14;42.00;34.80
4314;DHT22;2170;48.794;9.182;2023-07-09T15:20:44;42.10;35.00
4314;DHT22;2170;48.794;9.182;2023-07-09T15:25:40;41.80;34.80
4314;DHT22;2170;48.794;9.182;2023-07-09T15:28:10;41.20;35.40
4314;DHT22;2170;48.794;9.182;2023-07-09T15:33:04;41.00;35.10
4314;DHT22;2170;48.794;9.182;2023-07-09T15:35:33;40.40;35.90
4314;DHT22;2170;48.794;9.182;2023-07-09T15:38:01;40.60;36.00
4314;DHT22;2170;48.794;9.182;2023-07-09T15:40:29;40.50;36.20
4314;DHT22;2170;48.794;9.182;2023-07-09T15:42:58;40.70;36.50
4314;DHT22;2170;48.794;9.182;2023-07-09T15:45:28;40.50;36.30
4314;DHT22;2170;48.794;9.182;2023-07-09T15:47:55;40.50;36.60
4314;DHT22;2170;48.794;9.182;2023-07-09T15:50:23;40.30;36.50
4314;DHT22;2170;48.794;9.182;2023-07-09T15:52:52;40.20;36.70
4314;DHT22;2170;48.794;9.182;2023-07-09T15:55:21;40.20;36.50
4314;DHT22;2170;48.794;9.182;2023-07-09T15:57:51;40.10;36.40
4314;DHT22;2170;48.794;9.182;2023-07-09T16:00:20;40.10;36.50
4314;DHT22;2170;48.794;9.182;2023-07-09T16:02:50;39.80;36.70
4314;DHT22;2170;48.794;9.182;2023-07-09T16:05:20;39.80;36.70
4314;DHT22;2170;48.794;9.182;2023-07-09T16:07:49;39.80;37.90
4314;DHT22;2170;48.794;9.182;2023-07-09T16:12:45;39.70;36.30
4314;DHT22;2170;48.794;9.182;2023-07-09T16:15:13;39.60;36.90
4314;DHT22;2170;48.794;9.182;2023-07-09T16:17:40;39.60;37.30
4314;DHT22;2170;48.794;9.182;2023-07-09T16:20:10;39.40;37.30
4314;DHT22;2170;48.794;9.182;2023-07-09T16:22:37;39.30;37.10
4314;DHT22;2170;48.794;9.182;2023-07-09T16:25:15;38.80;37.20
4314;DHT22;2170;48.794;9.182;2023-07-09T16:27:43;38.70;38.00
4314;DHT22;2170;48.794;9.182;2023-07-09T16:30:16;38.60;38.30
4314;DHT22;2170;48.794;9.182;2023-07-09T16:32:43;38.50;38.40
4314;DHT22;2170;48.794;9.182;2023-07-09T16:35:12;38.50;38.20
4314;DHT22;2170;48.794;9.182;2023-07-09T16:37:39;38.30;38.70
4314;DHT22;2170;48.794;9.182;2023-07-09T16:45:07;38.40;37.60
4314;DHT22;2170;48.794;9.182;2023-07-09T16:47:34;38.20;38.40
4314;DHT22;2170;48.794;9.182;2023-07-09T16:50:01;37.90;39.10
4314;DHT22;2170;48.794;9.182;2023-07-09T16:52:30;37.60;38.90
4314;DHT22;2170;48.794;9.182;2023-07-09T16:57:26;37.70;38.10
4314;DHT22;2170;48.794;9.182;2023-07-09T16:59:56;37.70;38.70
4314;DHT22;2170;48.794;9.182;2023-07-09T17:02:28;37.50;39.20
4314;DHT22;2170;48.794;9.182;2023-07-09T17:04:57;37.20;39.70
4314;DHT22;2170;48.794;9.182;2023-07-09T17:09:54;37.30;38.70
4314;DHT22;2170;48.794;9.182;2023-07-09T17:12:21;37.30;39.20
4314;DHT22;2170;48.794;9.182;2023-07-09T17:17:18;37.10;39.10
4314;DHT22;2170;48.794;9.182;2023-07-09T17:19:45;37.30;39.20
4314;DHT22;2170;48.794;9.182;2023-07-09T17:22:17;37.30;39.70
4314;DHT22;2170;48.794;9.182;2023-07-09T17:24:45;37.50;39.90
4314;DHT22;2170;48.794;9.182;2023-07-09T17:27:13;37.60;39.20
4314;DHT22;2170;48.794;9.182;2023-07-09T17:29:41;37.70;39.00
4314;DHT22;2170;48.794;9.182;2023-07-09T17:32:08;37.60;39.40
4314;DHT22;2170;48.794;9.182;2023-07-09T17:34:37;37.50;39.30
4314;DHT22;2170;48.794;9.182;2023-07-09T17:37:04;37.70;39.80
4314;DHT22;2170;48.794;9.182;2023-07-09T17:39:32;37.20;39.10
4314;DHT22;2170;48.794;9.182;2023-07-09T17:42:00;37.10;39.40
4314;DHT22;2170;48.794;9.182;2023-07-09T17:44:28;37.10;39.90
4314;DHT22;2170;48.794;9.182;2023-07-09T17:46:55;37.00;40.20
4314;DHT22;2170;48.794;9.182;2023-07-09T17:49:24;36.90;40.10